createdAt,value
2019-05-10T00:03:08.225Z,27.80
2019-05-10T00:05:40.407Z,27.32
2019-05-10T00:08:13.226Z,21.07
2019-05-10T00:10:45.193Z,27.73
2019-05-10T00:13:17.210Z,23.20
2019-05-10T00:15:48.128Z,22.45
2019-05-10T00:18:19.016Z,23.92
2019-05-10T00:20:51.037Z,19.30
2019-05-10T00:23:21.973Z,25.32
2019-05-10T00:25:52.852Z,21.57
2019-05-10T00:28:23.907Z,22.27
2019-05-10T00:30:54.708Z,22.73
2019-05-10T00:33:25.467Z,19.17
2019-05-10T00:35:56.260Z,20.05
2019-05-10T00:38:27.324Z,21.30
2019-05-10T00:40:58.103Z,20.43
2019-05-10T00:43:28.920Z,21.70
2019-05-10T00:45:59.779Z,20.08
2019-05-10T00:48:31.403Z,28.85
2019-05-10T00:51:02.263Z,20.37
2019-05-10T00:53:33.010Z,23.52
2019-05-10T00:56:03.823Z,20.62
2019-05-10T00:58:34.833Z,24.87
2019-05-10T01:01:05.682Z,22.48
2019-05-10T01:03:36.688Z,21.42
2019-05-10T01:06:07.536Z,20.00
2019-05-10T01:08:38.428Z,19.27
2019-05-10T01:11:09.220Z,20.08
2019-05-10T01:13:40.142Z,19.92
2019-05-10T01:16:11.102Z,18.65
2019-05-10T01:18:41.862Z,18.07
2019-05-10T01:21:12.953Z,20.17
2019-05-10T01:23:44.038Z,18.02
2019-05-10T01:26:14.971Z,21.55
2019-05-10T01:28:46.263Z,22.93
2019-05-10T01:31:17.336Z,21.68
2019-05-10T01:33:48.278Z,23.57
2019-05-10T01:36:19.303Z,24.25
2019-05-10T01:38:50.808Z,26.90
2019-05-10T01:41:21.572Z,25.20
2019-05-10T01:43:53.105Z,25.65
2019-05-10T01:46:24.192Z,25.80
2019-05-10T01:48:55.160Z,24.47
2019-05-10T01:51:31.412Z,27.22
2019-05-10T01:54:02.394Z,25.27
2019-05-10T01:56:33.446Z,24.67
2019-05-10T01:59:04.596Z,27.42
2019-05-10T02:01:37.629Z,27.82
2019-05-10T02:04:08.764Z,26.73
2019-05-10T02:06:39.778Z,27.37
2019-05-10T02:09:10.967Z,25.85
2019-05-10T02:11:45.176Z,21.50
2019-05-10T02:14:15.796Z,31.52
2019-05-10T02:16:46.664Z,25.37
2019-05-10T02:19:18.327Z,25.45
2019-05-10T02:21:51.238Z,25.00
2019-05-10T02:24:21.936Z,22.77
2019-05-10T02:26:55.700Z,23.10
2019-05-10T02:29:28.252Z,25.40
2019-05-10T02:31:58.666Z,23.52
2019-05-10T02:34:29.666Z,24.70
2019-05-10T02:37:00.556Z,24.27
2019-05-10T02:39:32.614Z,24.72
2019-05-10T02:42:03.769Z,25.30
2019-05-10T02:44:35.348Z,29.70
2019-05-10T02:47:11.203Z,27.50
2019-05-10T02:49:42.034Z,28.45
2019-05-10T02:52:12.889Z,23.92
2019-05-10T02:54:45.849Z,26.07
2019-05-10T02:57:17.605Z,24.25
2019-05-10T02:59:50.204Z,26.10
2019-05-10T03:02:22.128Z,24.23
2019-05-10T03:04:55.198Z,32.73
2019-05-10T03:07:27.555Z,26.23
2019-05-10T03:10:02.206Z,28.70
2019-05-10T03:12:33.593Z,31.75
2019-05-10T03:15:06.384Z,109.00
2019-05-10T03:17:39.817Z,47.73
2019-05-10T03:20:11.843Z,65.83
2019-05-10T03:22:45.237Z,46.65
2019-05-10T03:25:16.814Z,56.95
2019-05-10T03:27:48.033Z,36.53
2019-05-10T03:30:20.090Z,40.45
2019-05-10T03:32:51.140Z,42.20
2019-05-10T03:35:21.975Z,40.38
2019-05-10T03:37:53.527Z,38.23
2019-05-10T03:40:24.558Z,43.68
2019-05-10T03:42:55.807Z,41.33
2019-05-10T03:45:27.612Z,44.93
2019-05-10T03:48:00.225Z,49.03
2019-05-10T03:50:31.134Z,45.88
2019-05-10T03:53:02.004Z,40.23
2019-05-10T03:55:33.425Z,39.13
2019-05-10T03:58:04.379Z,64.15
2019-05-10T04:00:35.247Z,60.12
2019-05-10T04:03:06.180Z,43.80
2019-05-10T04:05:36.937Z,37.48
2019-05-10T04:08:08.648Z,36.98
2019-05-10T04:10:39.591Z,33.78
2019-05-10T04:13:11.134Z,30.82
2019-05-10T04:15:42.120Z,30.97
2019-05-10T04:18:13.600Z,28.83
2019-05-10T04:20:44.263Z,33.70
2019-05-10T04:23:15.174Z,33.70
2019-05-10T04:25:46.157Z,32.58
2019-05-10T04:28:17.245Z,32.70
2019-05-10T04:30:49.088Z,37.20
2019-05-10T04:33:20.287Z,31.93
2019-05-10T04:35:51.165Z,32.45
2019-05-10T04:38:22.248Z,33.30
2019-05-10T04:40:53.409Z,33.63
2019-05-10T04:43:24.204Z,32.60
2019-05-10T04:45:55.084Z,38.90
2019-05-10T04:48:26.129Z,38.02
2019-05-10T04:50:57.006Z,31.55
2019-05-10T04:53:28.766Z,35.58
2019-05-10T04:56:03.520Z,32.20
2019-05-10T04:58:34.641Z,35.98
2019-05-10T05:01:05.530Z,33.42
2019-05-10T05:03:36.413Z,31.12
2019-05-10T05:06:07.367Z,34.27
2019-05-10T05:08:38.420Z,45.60
2019-05-10T05:11:09.256Z,39.95
2019-05-10T05:13:40.631Z,36.75
2019-05-10T05:16:11.544Z,29.55
2019-05-10T05:18:42.518Z,30.40
2019-05-10T05:21:37.262Z,30.77
2019-05-10T05:24:09.514Z,32.90
2019-05-10T05:26:40.512Z,35.63
2019-05-10T05:29:19.226Z,31.90
2019-05-10T05:31:44.624Z,30.77
2019-05-10T05:34:15.857Z,30.25
2019-05-10T05:37:05.235Z,27.82
2019-05-10T05:39:37.706Z,31.87
2019-05-10T05:42:08.639Z,31.90
2019-05-10T05:44:40.922Z,37.05
2019-05-10T05:47:11.797Z,31.55
2019-05-10T05:49:42.900Z,30.37
2019-05-10T05:52:13.729Z,27.20
2019-05-10T05:54:45.082Z,31.50
2019-05-10T05:57:16.462Z,30.35
2019-05-10T05:59:49.271Z,30.75
2019-05-10T06:02:33.639Z,31.90
2019-05-10T06:05:04.430Z,35.43
2019-05-10T06:07:37.995Z,26.97
2019-05-10T06:10:10.235Z,31.12
2019-05-10T06:12:44.463Z,33.67
2019-05-10T06:15:13.073Z,34.13
2019-05-10T06:17:43.957Z,33.33
2019-05-10T06:20:15.348Z,31.25
2019-05-10T06:23:04.194Z,30.72
2019-05-10T06:25:18.711Z,31.90
2019-05-10T06:27:49.686Z,32.25
2019-05-10T06:30:20.825Z,33.60
2019-05-10T06:32:53.236Z,30.40
2019-05-10T06:35:26.123Z,32.30
2019-05-10T06:37:57.046Z,29.27
2019-05-10T06:40:35.775Z,28.98
2019-05-10T06:43:00.132Z,35.38
2019-05-10T06:45:31.390Z,30.23
2019-05-10T06:48:02.481Z,28.83
2019-05-10T06:50:33.291Z,29.75
2019-05-10T06:53:07.955Z,30.20
2019-05-10T06:55:36.693Z,27.98
2019-05-10T06:58:07.567Z,27.65
2019-05-10T07:00:44.509Z,24.40
2019-05-10T07:03:10.793Z,31.60
2019-05-10T07:05:41.785Z,27.40
2019-05-10T07:08:17.536Z,34.78
2019-05-10T07:10:44.742Z,28.75
2019-05-10T07:13:15.671Z,28.52
2019-05-10T07:15:46.495Z,31.40
2019-05-10T07:18:22.644Z,23.55
2019-05-10T07:20:49.610Z,29.55
2019-05-10T07:23:20.444Z,31.50
2019-05-10T07:25:51.279Z,30.20
2019-05-10T07:28:22.344Z,29.05
2019-05-10T07:30:53.326Z,29.42
2019-05-10T07:33:24.470Z,27.52
2019-05-10T07:35:55.156Z,28.40
2019-05-10T07:38:31.013Z,28.98
2019-05-10T07:40:59.043Z,31.23
2019-05-10T07:43:30.044Z,28.32
2019-05-10T07:46:06.347Z,28.65
2019-05-10T07:48:33.948Z,28.12
2019-05-10T07:51:04.704Z,32.05
2019-05-10T07:53:35.877Z,27.55
2019-05-10T07:56:08.071Z,25.50
2019-05-10T07:58:43.423Z,26.80
2019-05-10T08:01:11.419Z,24.90
2019-05-10T08:03:48.257Z,30.30
2019-05-10T08:06:15.553Z,28.42
2019-05-10T08:08:46.664Z,31.68
2019-05-10T08:11:19.109Z,27.00
2019-05-10T08:13:49.897Z,27.98
2019-05-10T08:16:23.011Z,28.32
2019-05-10T08:18:55.677Z,30.62
2019-05-10T08:21:26.494Z,32.30
2019-05-10T08:23:59.109Z,24.72
2019-05-10T08:26:29.610Z,32.05
2019-05-10T08:29:02.123Z,29.48
2019-05-10T08:31:40.693Z,29.90
2019-05-10T08:34:05.112Z,29.80
2019-05-10T08:36:37.290Z,23.92
2019-05-10T08:39:10.950Z,26.25
2019-05-10T08:41:42.760Z,29.67
2019-05-10T08:44:19.429Z,31.10
2019-05-10T08:46:45.233Z,26.65
2019-05-10T08:49:21.775Z,25.17
2019-05-10T08:51:49.453Z,29.57
2019-05-10T08:54:22.169Z,28.98
2019-05-10T08:57:00.869Z,30.77
2019-05-10T08:59:26.748Z,28.20
2019-05-10T09:01:57.594Z,26.87
2019-05-10T09:04:33.469Z,25.20
2019-05-10T09:07:02.668Z,24.72
2019-05-10T09:09:33.887Z,30.37
2019-05-10T09:12:09.022Z,29.65
2019-05-10T09:14:36.966Z,26.62
2019-05-10T09:17:08.182Z,26.60
2019-05-10T09:19:41.910Z,28.47
2019-05-10T09:22:12.492Z,27.93
2019-05-10T09:24:48.606Z,29.18
2019-05-10T09:27:15.646Z,26.20
2019-05-10T09:29:46.603Z,40.85
2019-05-10T09:32:23.449Z,30.75
2019-05-10T09:34:54.149Z,26.35
2019-05-10T09:37:31.874Z,26.55
2019-05-10T09:40:09.359Z,29.50
2019-05-10T09:42:39.910Z,28.67
2019-05-10T09:45:09.697Z,35.52
2019-05-10T09:47:43.070Z,29.60
2019-05-10T09:50:12.692Z,27.73
2019-05-10T09:52:43.709Z,30.15
2019-05-10T09:55:17.665Z,33.00
2019-05-10T09:57:58.368Z,29.70
2019-05-10T10:00:30.994Z,31.65
2019-05-10T10:03:02.065Z,26.77
2019-05-10T10:05:32.921Z,31.20
2019-05-10T10:08:08.494Z,26.68
2019-05-10T10:10:37.215Z,31.48
2019-05-10T10:13:13.374Z,29.57
2019-05-10T10:15:40.266Z,30.12
2019-05-10T10:18:12.597Z,28.65
2019-05-10T10:20:45.146Z,28.38
2019-05-10T10:23:17.289Z,29.67
2019-05-10T10:25:48.370Z,32.15
2019-05-10T10:28:22.571Z,30.85
2019-05-10T10:30:58.904Z,31.05
2019-05-10T10:33:26.295Z,27.15
2019-05-10T10:36:04.346Z,29.35
2019-05-10T10:38:31.093Z,30.45
2019-05-10T10:41:00.645Z,27.55
2019-05-10T10:43:31.595Z,29.10
2019-05-10T10:46:02.629Z,31.05
2019-05-10T10:48:33.355Z,27.35
2019-05-10T10:51:04.152Z,27.93
2019-05-10T10:53:34.826Z,28.27
2019-05-10T10:56:07.641Z,27.95
2019-05-10T10:58:37.890Z,31.30
2019-05-10T11:01:19.879Z,28.55
2019-05-10T11:03:41.965Z,28.35
2019-05-10T11:06:15.300Z,24.92
2019-05-10T11:08:45.062Z,28.92
2019-05-10T11:11:15.985Z,23.65
2019-05-10T11:13:58.003Z,27.73
2019-05-10T11:16:20.752Z,25.80
2019-05-10T11:18:52.052Z,25.27
2019-05-10T11:21:23.301Z,25.48
2019-05-10T11:23:55.411Z,22.75
2019-05-10T11:26:26.776Z,24.72
2019-05-10T11:28:58.472Z,22.20
2019-05-10T11:31:31.172Z,21.90
2019-05-10T11:34:01.688Z,22.67
2019-05-10T11:36:32.666Z,23.25
2019-05-10T11:39:05.842Z,20.70
2019-05-10T11:41:35.699Z,22.60
2019-05-10T11:44:09.074Z,20.60
2019-05-10T11:46:41.473Z,23.62
2019-05-10T11:49:11.021Z,20.90
2019-05-10T11:51:41.921Z,21.23
2019-05-10T11:54:12.859Z,20.95
2019-05-10T11:56:43.668Z,22.60
2019-05-10T11:59:16.494Z,21.17
2019-05-10T12:01:57.250Z,23.85
2019-05-10T12:04:24.038Z,22.48
2019-05-10T12:06:51.481Z,21.25
2019-05-10T12:09:24.461Z,22.67
2019-05-10T12:11:56.832Z,24.72
2019-05-10T12:14:26.982Z,23.57
2019-05-10T12:16:57.734Z,23.52
2019-05-10T12:19:36.690Z,23.05
2019-05-10T12:22:04.564Z,22.05
2019-05-10T12:24:46.822Z,23.02
2019-05-10T12:27:18.632Z,22.67
2019-05-10T12:29:37.338Z,25.12
2019-05-10T12:32:10.282Z,23.62
2019-05-10T12:34:41.005Z,19.17
2019-05-10T12:37:12.045Z,25.10
2019-05-10T12:39:42.918Z,22.45
2019-05-10T12:42:14.426Z,25.77
2019-05-10T12:44:47.968Z,19.00
2019-05-10T12:47:17.462Z,24.12
2019-05-10T12:49:48.139Z,23.45
2019-05-10T12:52:22.099Z,26.85
2019-05-10T12:54:51.283Z,26.40
2019-05-10T12:57:21.991Z,24.25
2019-05-10T12:59:52.851Z,22.93
2019-05-10T13:02:24.230Z,22.52
2019-05-10T13:04:55.002Z,20.77
2019-05-10T13:07:25.902Z,20.20
2019-05-10T13:10:03.620Z,24.57
2019-05-10T13:12:29.150Z,19.92
2019-05-10T13:14:59.910Z,24.90
2019-05-10T13:17:30.916Z,20.12
2019-05-10T13:20:03.678Z,22.27
2019-05-10T13:22:37.586Z,24.80
2019-05-10T13:25:08.647Z,29.50
2019-05-10T13:27:39.407Z,26.25
2019-05-10T13:30:12.791Z,26.17
2019-05-10T13:32:43.579Z,22.65
2019-05-10T13:35:14.651Z,25.50
2019-05-10T13:37:45.425Z,26.02
2019-05-10T13:40:16.442Z,26.60
2019-05-10T13:42:47.357Z,24.57
2019-05-10T13:45:18.152Z,22.45
2019-05-10T13:47:49.069Z,22.15
2019-05-10T13:50:19.888Z,23.10
2019-05-10T13:52:50.595Z,21.82
2019-05-10T13:55:21.289Z,18.62
2019-05-10T13:57:54.116Z,22.15
2019-05-10T14:00:33.013Z,25.25
2019-05-10T14:02:57.145Z,22.35
2019-05-10T14:05:28.073Z,19.55
2019-05-10T14:07:58.847Z,23.30
2019-05-10T14:10:29.644Z,24.43
2019-05-10T14:13:02.323Z,21.07
2019-05-10T14:15:32.937Z,24.15
2019-05-10T14:18:03.903Z,19.95
2019-05-10T14:20:34.585Z,21.70
2019-05-10T14:23:05.597Z,22.27
2019-05-10T14:25:38.651Z,23.83
2019-05-10T14:28:09.836Z,21.20
2019-05-10T14:30:40.861Z,23.02
2019-05-10T14:33:14.807Z,19.52
2019-05-10T14:35:44.117Z,18.87
2019-05-10T14:38:15.052Z,20.50
2019-05-10T14:40:45.926Z,22.62
2019-05-10T14:43:16.774Z,22.22
2019-05-10T14:45:47.727Z,23.73
2019-05-10T14:48:28.085Z,20.50
2019-05-10T14:50:51.437Z,21.87
2019-05-10T14:53:25.595Z,22.77
2019-05-10T14:55:54.294Z,22.58
2019-05-10T14:58:25.276Z,22.73
2019-05-10T15:00:56.047Z,34.18
2019-05-10T15:03:26.980Z,27.25
2019-05-10T15:06:01.506Z,24.43
2019-05-10T15:08:30.298Z,21.85
2019-05-10T15:11:01.254Z,26.65
2019-05-10T15:13:34.931Z,26.95
2019-05-10T15:16:07.502Z,28.12
2019-05-10T15:18:36.914Z,26.57
2019-05-10T15:21:07.762Z,25.10
2019-05-10T15:23:38.673Z,25.88
2019-05-10T15:26:12.093Z,31.37
2019-05-10T15:28:42.647Z,25.05
2019-05-10T15:31:13.804Z,25.97
2019-05-10T15:33:44.664Z,24.55
2019-05-10T15:36:15.643Z,29.37
2019-05-10T15:38:50.343Z,27.42
2019-05-10T15:41:22.282Z,24.95
2019-05-10T15:43:53.440Z,24.82
2019-05-10T15:46:23.335Z,26.95
2019-05-10T15:48:54.905Z,25.43
2019-05-10T15:51:35.757Z,28.92
2019-05-10T15:54:04.644Z,24.32
2019-05-10T15:56:30.235Z,26.68
2019-05-10T15:59:01.017Z,25.43
2019-05-10T16:01:31.790Z,27.25
2019-05-10T16:04:02.529Z,26.75
2019-05-10T16:06:37.659Z,28.40
2019-05-10T16:09:17.139Z,28.65
2019-05-10T16:11:39.002Z,28.05
2019-05-10T16:14:09.929Z,24.60
2019-05-10T16:16:40.757Z,34.43
2019-05-10T16:19:13.053Z,25.45
2019-05-10T16:21:46.730Z,27.98
2019-05-10T16:24:25.358Z,28.10
2019-05-10T16:26:48.302Z,26.87
2019-05-10T16:29:19.254Z,32.38
2019-05-10T16:31:50.056Z,32.30
2019-05-10T16:34:26.466Z,30.40
2019-05-10T16:36:53.605Z,27.35
2019-05-10T16:39:24.188Z,31.77
2019-05-10T16:41:55.264Z,35.55
2019-05-10T16:44:26.266Z,30.17
2019-05-10T16:46:57.663Z,31.65
2019-05-10T16:49:28.534Z,33.55
2019-05-10T16:51:59.550Z,36.85
2019-05-10T16:54:30.620Z,30.52
2019-05-10T16:57:01.525Z,33.10
2019-05-10T16:59:35.147Z,30.68
2019-05-10T17:02:06.521Z,31.93
2019-05-10T17:04:39.592Z,29.35
2019-05-10T17:07:13.125Z,35.78
2019-05-10T17:09:42.829Z,33.63
2019-05-10T17:12:13.644Z,32.70
2019-05-10T17:14:44.593Z,35.73
2019-05-10T17:17:15.434Z,31.30
2019-05-10T17:19:46.294Z,29.30
2019-05-10T17:22:17.211Z,28.55
2019-05-10T17:24:48.075Z,27.93
2019-05-10T17:27:19.474Z,28.38
2019-05-10T17:29:51.367Z,23.67
2019-05-10T17:32:24.571Z,22.30
2019-05-10T17:34:54.512Z,22.90
2019-05-10T17:37:29.999Z,21.95
2019-05-10T17:39:57.731Z,21.30
2019-05-10T17:42:28.691Z,20.57
2019-05-10T17:45:01.947Z,24.43
2019-05-10T17:47:32.290Z,21.57
2019-05-10T17:50:03.866Z,21.97
2019-05-10T17:52:34.839Z,24.98
2019-05-10T17:55:11.048Z,24.55
2019-05-10T17:57:39.755Z,30.45
2019-05-10T18:00:11.283Z,21.68
2019-05-10T18:02:42.246Z,28.50
2019-05-10T18:05:13.379Z,24.05
2019-05-10T18:07:44.239Z,27.87
2019-05-10T18:10:16.695Z,24.80
2019-05-10T18:12:47.429Z,27.25
2019-05-10T18:15:18.425Z,28.12
2019-05-10T18:17:49.792Z,27.80
2019-05-10T18:20:20.871Z,25.85
2019-05-10T18:22:51.781Z,27.52
2019-05-10T18:25:22.718Z,26.97
2019-05-10T18:27:53.598Z,28.70
2019-05-10T18:30:24.413Z,27.48
2019-05-10T18:32:55.410Z,27.52
2019-05-10T18:35:26.249Z,27.48
2019-05-10T18:37:59.538Z,24.98
2019-05-10T18:40:31.428Z,25.40
2019-05-10T18:43:04.074Z,25.97
2019-05-10T18:45:33.681Z,25.88
2019-05-10T18:48:04.492Z,25.80
2019-05-10T18:50:39.635Z,29.60
2019-05-10T18:53:07.491Z,30.05
2019-05-10T18:55:38.252Z,23.92
2019-05-10T18:58:09.257Z,26.90
2019-05-10T19:00:40.250Z,25.60
2019-05-10T19:03:11.234Z,26.85
2019-05-10T19:05:42.029Z,30.52
2019-05-10T19:08:13.014Z,33.30
2019-05-10T19:10:43.955Z,28.77
2019-05-10T19:13:15.222Z,27.22
2019-05-10T19:15:52.104Z,31.93
2019-05-10T19:18:23.214Z,26.95
2019-05-10T19:20:53.373Z,31.65
2019-05-10T19:23:22.867Z,31.65
2019-05-10T19:25:54.110Z,29.50
2019-05-10T19:28:26.707Z,28.07
2019-05-10T19:30:58.715Z,27.93
2019-05-10T19:33:36.150Z,28.02
2019-05-10T19:36:01.526Z,29.65
2019-05-10T19:38:32.399Z,27.02
2019-05-10T19:41:03.188Z,28.02
2019-05-10T19:43:34.371Z,27.50
2019-05-10T19:46:05.159Z,28.85
2019-05-10T19:48:36.965Z,29.15
2019-05-10T19:51:09.715Z,29.05
2019-05-10T19:53:42.244Z,29.60
2019-05-10T19:56:12.464Z,27.70
2019-05-10T19:58:43.673Z,27.73
2019-05-10T20:01:14.563Z,27.70
2019-05-10T20:03:45.457Z,27.67
2019-05-10T20:06:16.362Z,27.90
2019-05-10T20:08:47.136Z,26.02
2019-05-10T20:11:18.051Z,29.90
2019-05-10T20:13:49.028Z,28.55
2019-05-10T20:16:19.965Z,26.30
2019-05-10T20:18:50.889Z,27.13
2019-05-10T20:21:21.656Z,28.17
2019-05-10T20:23:52.514Z,28.62
2019-05-10T20:26:23.368Z,25.95
2019-05-10T20:28:54.201Z,24.10
2019-05-10T20:31:25.063Z,30.32
2019-05-10T20:33:55.917Z,27.15
2019-05-10T20:36:26.832Z,28.55
2019-05-10T20:39:00.786Z,25.92
2019-05-10T20:41:29.896Z,27.30
2019-05-10T20:44:00.709Z,26.15
2019-05-10T20:46:31.520Z,27.67
2019-05-10T20:49:02.337Z,29.02
2019-05-10T20:51:33.126Z,30.72
2019-05-10T20:54:04.311Z,36.68
2019-05-10T20:56:35.222Z,25.57
2019-05-10T20:59:06.057Z,29.23
2019-05-10T21:01:37.022Z,28.45
2019-05-10T21:04:07.974Z,38.65
2019-05-10T21:06:38.896Z,28.55
2019-05-10T21:09:09.808Z,33.73
2019-05-10T21:11:40.689Z,35.50
2019-05-10T21:14:11.661Z,28.50
2019-05-10T21:16:42.588Z,30.50
2019-05-10T21:19:13.398Z,31.70
2019-05-10T21:21:44.116Z,27.90
2019-05-10T21:24:15.087Z,30.23
2019-05-10T21:26:46.152Z,24.95
2019-05-10T21:29:17.089Z,24.57
2019-05-10T21:31:47.938Z,30.40
2019-05-10T21:34:18.717Z,24.45
2019-05-10T21:36:49.606Z,24.07
2019-05-10T21:39:20.202Z,20.40
2019-05-10T21:41:51.116Z,23.22
2019-05-10T21:44:22.050Z,23.15
2019-05-10T21:46:53.774Z,23.42
2019-05-10T21:49:24.912Z,24.10
2019-05-10T21:51:55.870Z,24.23
2019-05-10T21:54:26.744Z,25.35
2019-05-10T21:56:57.599Z,23.70
2019-05-10T21:59:28.420Z,22.48
2019-05-10T22:01:59.154Z,24.35
2019-05-10T22:04:30.057Z,24.47
2019-05-10T22:07:00.730Z,22.07
2019-05-10T22:09:31.623Z,20.65
2019-05-10T22:12:02.430Z,25.17
2019-05-10T22:14:33.271Z,26.17
2019-05-10T22:17:04.103Z,22.13
2019-05-10T22:19:34.946Z,28.95
2019-05-10T22:22:05.892Z,21.95
2019-05-10T22:24:36.567Z,22.17
2019-05-10T22:27:07.452Z,22.58
